Salem, Massachusetts
Current Conditions -  °F | °C
As of 1:53 PM on Saturday 25 Oct 2014 (Local Time) from KBVY Reporting Station
Clear Clear  
Wind Chill: 64°   Ceiling: Unl
Heat Index: 64°   Visibility: 10mi
Dew Point: 39°   Wind: 12mph
Humidity: 40%   Direction: 250°WSW
Pressure: 29.63"   Gusts: NA
Location:  42.52°N, 70.89°W
Report Text: KBVY 251753Z 25010KT 10SM CLR 18/04 A2963 RMK AO2 SLP027 T01780039 10178 20072 56025
Loading
Personal Weather Stations






























Interactive Weather Map
Tropical Storm Tracking
New forecast layout! Learn more

10-Day Weather Forecast

Advertisements
Track Severe Weather on mobile